This is the latest recevied weather packets stored in our database for station/object HUGOCO. If no packets are shown the sender has not sent any weather packets the latest 10 day(s).
| Time | Temp. | Humidity | Pressure | Rain* | Wind** | Luminosity | Snow |
|---|---|---|---|---|---|---|---|
| 1777890362 | 13.89° C | 31% | 1005.4 hPa | 0 mm | - | - | - |
| 1777890062 | 13.89° C | 32% | 1005.5 hPa | 0 mm | - | - | - |
| 1777889762 | 13.89° C | 32% | 1005.6 hPa | 0 mm | - | - | - |
| 1777889463 | 13.33° C | 32% | 1005.5 hPa | 0 mm | - | - | - |
| 1777889163 | 13.33° C | 34% | 1005.5 hPa | 0 mm | - | - | - |
| 1777888863 | 12.78° C | 35% | 1005.6 hPa | 0 mm | - | - | - |
| 1777888563 | 12.22° C | 37% | 1005.6 hPa | 0 mm | - | - | - |
| 1777888263 | 11.11° C | 41% | 1005.5 hPa | 0 mm | - | - | - |
| 1777887963 | 11.11° C | 43% | 1005.6 hPa | 0 mm | - | - | - |
| 1777887847 | 12.22° C | 40% | 1005.6 hPa | 0 mm | - | - | - |
| 1777887663 | 12.22° C | 40% | 1005.6 hPa | 0 mm | - | - | - |
| 1777887363 | 12.78° C | 38% | 1005.7 hPa | 0 mm | - | - | - |
| 1777887063 | 13.33° C | 35% | 1005.6 hPa | 0 mm | - | - | - |
| 1777886763 | 12.78° C | 35% | 1005.6 hPa | 0 mm | - | - | - |
| 1777886463 | 12.78° C | 36% | 1005.8 hPa | 0 mm | - | - | - |
| 1777886163 | 12.78° C | 35% | 1005.8 hPa | 0 mm | - | - | - |
| 1777885863 | 12.78° C | 37% | 1005.7 hPa | 0 mm | - | - | - |
| 1777885563 | 13.33° C | 35% | 1005.8 hPa | 0 mm | - | - | - |
| 1777885263 | 12.78° C | 36% | 1005.8 hPa | 0 mm | - | - | - |
| 1777885004 | 12.78° C | 36% | 1005.9 hPa | 0 mm | - | - | - |
| 1777884963 | 12.78° C | 36% | 1005.9 hPa | 0 mm | - | - | - |
| 1777884663 | 12.78° C | 37% | 1006 hPa | 0 mm | - | - | - |
| 1777884363 | 13.33° C | 35% | 1006.1 hPa | 0 mm | - | - | - |
| 1777884063 | 13.89° C | 34% | 1006 hPa | 0 mm | - | - | - |
| 1777883763 | 13.89° C | 33% | 1006 hPa | 0 mm | - | - | - |
* Rain latest hour (hover to see other rain measurements)
** Current wind speed in m/s (hover to see current wind gust speed)